sensor_id;sensor_type;location;lat;lon;timestamp;temperature;humidity
15413;DHT22;7805;49.554;7.632;2023-08-30T00:01:06;16.20;99.90
15413;DHT22;7805;49.554;7.632;2023-08-30T00:03:33;16.20;99.90
15413;DHT22;7805;49.554;7.632;2023-08-30T00:06:06;16.20;99.90
15413;DHT22;7805;49.554;7.632;2023-08-30T00:08:32;16.20;99.90
15413;DHT22;7805;49.554;7.632;2023-08-30T00:10:58;16.20;99.90
15413;DHT22;7805;49.554;7.632;2023-08-30T00:13:29;16.10;99.90
15413;DHT22;7805;49.554;7.632;2023-08-30T00:15:55;16.10;99.90
15413;DHT22;7805;49.554;7.632;2023-08-30T00:18:21;16.00;99.90
15413;DHT22;7805;49.554;7.632;2023-08-30T00:20:47;16.00;99.90
15413;DHT22;7805;49.554;7.632;2023-08-30T00:23:13;16.20;99.90
15413;DHT22;7805;49.554;7.632;2023-08-30T00:25:38;16.10;99.90
15413;DHT22;7805;49.554;7.632;2023-08-30T00:28:04;16.30;99.90
15413;DHT22;7805;49.554;7.632;2023-08-30T00:30:30;16.10;99.90
15413;DHT22;7805;49.554;7.632;2023-08-30T00:32:55;16.10;99.90
15413;DHT22;7805;49.554;7.632;2023-08-30T00:35:22;16.10;99.90
15413;DHT22;7805;49.554;7.632;2023-08-30T00:37:47;16.20;99.90
15413;DHT22;7805;49.554;7.632;2023-08-30T00:40:13;16.20;99.90
15413;DHT22;7805;49.554;7.632;2023-08-30T00:42:38;16.20;99.90
15413;DHT22;7805;49.554;7.632;2023-08-30T00:45:06;16.20;99.90
15413;DHT22;7805;49.554;7.632;2023-08-30T00:47:32;16.20;99.90
15413;DHT22;7805;49.554;7.632;2023-08-30T00:49:58;16.30;99.90
15413;DHT22;7805;49.554;7.632;2023-08-30T00:52:23;16.20;99.90
15413;DHT22;7805;49.554;7.632;2023-08-30T00:54:49;16.20;99.90
15413;DHT22;7805;49.554;7.632;2023-08-30T00:57:16;16.30;99.90
15413;DHT22;7805;49.554;7.632;2023-08-30T00:59:41;16.30;99.90
15413;DHT22;7805;49.554;7.632;2023-08-30T01:02:07;16.30;99.90
15413;DHT22;7805;49.554;7.632;2023-08-30T01:04:33;16.20;99.90
15413;DHT22;7805;49.554;7.632;2023-08-30T01:06:58;16.20;99.90
15413;DHT22;7805;49.554;7.632;2023-08-30T01:09:24;16.20;99.90
15413;DHT22;7805;49.554;7.632;2023-08-30T01:12:09;16.30;99.90
15413;DHT22;7805;49.554;7.632;2023-08-30T01:14:45;16.30;99.90
15413;DHT22;7805;49.554;7.632;2023-08-30T01:17:13;16.30;99.90
15413;DHT22;7805;49.554;7.632;2023-08-30T01:22:16;16.30;99.90
15413;DHT22;7805;49.554;7.632;2023-08-30T01:27:42;16.20;99.90
15413;DHT22;7805;49.554;7.632;2023-08-30T01:30:10;16.20;99.90
15413;DHT22;7805;49.554;7.632;2023-08-30T01:32:36;16.20;99.90
15413;DHT22;7805;49.554;7.632;2023-08-30T01:35:04;16.20;99.90
15413;DHT22;7805;49.554;7.632;2023-08-30T01:37:31;16.00;99.90
15413;DHT22;7805;49.554;7.632;2023-08-30T01:39:58;16.00;99.90
15413;DHT22;7805;49.554;7.632;2023-08-30T01:42:27;16.00;99.90
15413;DHT22;7805;49.554;7.632;2023-08-30T01:44:55;16.00;99.90
15413;DHT22;7805;49.554;7.632;2023-08-30T01:47:26;16.00;99.90
15413;DHT22;7805;49.554;7.632;2023-08-30T01:49:53;16.00;99.90
15413;DHT22;7805;49.554;7.632;2023-08-30T01:52:20;15.90;99.90
15413;DHT22;7805;49.554;7.632;2023-08-30T01:54:46;15.90;99.90
15413;DHT22;7805;49.554;7.632;2023-08-30T01:57:13;15.80;99.90
15413;DHT22;7805;49.554;7.632;2023-08-30T01:59:38;15.80;99.90
15413;DHT22;7805;49.554;7.632;2023-08-30T02:02:04;15.80;99.90
15413;DHT22;7805;49.554;7.632;2023-08-30T02:04:30;15.90;99.90
15413;DHT22;7805;49.554;7.632;2023-08-30T02:07:02;15.80;99.90
15413;DHT22;7805;49.554;7.632;2023-08-30T02:09:34;15.70;99.90
15413;DHT22;7805;49.554;7.632;2023-08-30T02:12:05;15.80;99.90
15413;DHT22;7805;49.554;7.632;2023-08-30T02:14:33;15.60;99.90
15413;DHT22;7805;49.554;7.632;2023-08-30T02:16:59;15.60;99.90
15413;DHT22;7805;49.554;7.632;2023-08-30T02:19:25;15.60;99.90
15413;DHT22;7805;49.554;7.632;2023-08-30T02:21:51;15.60;99.90
15413;DHT22;7805;49.554;7.632;2023-08-30T02:24:17;15.50;99.90
15413;DHT22;7805;49.554;7.632;2023-08-30T02:26:42;15.80;99.90
15413;DHT22;7805;49.554;7.632;2023-08-30T02:29:08;15.80;99.90
15413;DHT22;7805;49.554;7.632;2023-08-30T02:31:35;15.60;99.90
15413;DHT22;7805;49.554;7.632;2023-08-30T02:34:00;15.50;99.90
15413;DHT22;7805;49.554;7.632;2023-08-30T02:36:27;15.50;99.90
15413;DHT22;7805;49.554;7.632;2023-08-30T02:38:53;15.50;99.90
15413;DHT22;7805;49.554;7.632;2023-08-30T02:41:18;15.40;99.90
15413;DHT22;7805;49.554;7.632;2023-08-30T02:43:44;15.40;99.90
15413;DHT22;7805;49.554;7.632;2023-08-30T02:46:10;15.40;99.90
15413;DHT22;7805;49.554;7.632;2023-08-30T02:48:35;15.40;99.90
15413;DHT22;7805;49.554;7.632;2023-08-30T02:51:01;15.40;99.90
15413;DHT22;7805;49.554;7.632;2023-08-30T02:53:26;15.50;99.90
15413;DHT22;7805;49.554;7.632;2023-08-30T02:55:52;15.30;99.90
15413;DHT22;7805;49.554;7.632;2023-08-30T02:58:21;15.20;99.90
15413;DHT22;7805;49.554;7.632;2023-08-30T03:00:46;15.20;99.90
15413;DHT22;7805;49.554;7.632;2023-08-30T03:03:12;15.20;99.90
15413;DHT22;7805;49.554;7.632;2023-08-30T03:05:38;15.50;99.90
15413;DHT22;7805;49.554;7.632;2023-08-30T03:08:03;15.10;99.90
15413;DHT22;7805;49.554;7.632;2023-08-30T03:10:29;15.00;99.90
15413;DHT22;7805;49.554;7.632;2023-08-30T03:12:55;15.10;99.90
15413;DHT22;7805;49.554;7.632;2023-08-30T03:15:20;15.10;99.90
15413;DHT22;7805;49.554;7.632;2023-08-30T03:17:46;15.00;99.90
15413;DHT22;7805;49.554;7.632;2023-08-30T03:20:11;14.90;99.90
15413;DHT22;7805;49.554;7.632;2023-08-30T03:22:37;14.80;99.90
15413;DHT22;7805;49.554;7.632;2023-08-30T03:25:03;14.90;99.90
15413;DHT22;7805;49.554;7.632;2023-08-30T03:27:29;14.70;99.90
15413;DHT22;7805;49.554;7.632;2023-08-30T03:29:55;14.70;99.90
15413;DHT22;7805;49.554;7.632;2023-08-30T03:32:21;14.70;99.90
15413;DHT22;7805;49.554;7.632;2023-08-30T03:34:47;14.70;99.90
15413;DHT22;7805;49.554;7.632;2023-08-30T03:37:17;14.80;99.90
15413;DHT22;7805;49.554;7.632;2023-08-30T03:39:42;14.70;99.90
15413;DHT22;7805;49.554;7.632;2023-08-30T03:42:08;14.70;99.90
15413;DHT22;7805;49.554;7.632;2023-08-30T03:44:34;14.70;99.90
15413;DHT22;7805;49.554;7.632;2023-08-30T03:47:00;14.70;99.90
15413;DHT22;7805;49.554;7.632;2023-08-30T03:49:26;14.60;99.90
15413;DHT22;7805;49.554;7.632;2023-08-30T03:51:51;14.60;99.90
15413;DHT22;7805;49.554;7.632;2023-08-30T03:54:17;14.50;99.90
15413;DHT22;7805;49.554;7.632;2023-08-30T03:56:43;14.70;99.90
15413;DHT22;7805;49.554;7.632;2023-08-30T03:59:09;14.60;99.90
15413;DHT22;7805;49.554;7.632;2023-08-30T04:01:35;14.60;99.90
15413;DHT22;7805;49.554;7.632;2023-08-30T04:04:01;14.60;99.90
15413;DHT22;7805;49.554;7.632;2023-08-30T04:06:26;14.70;99.90
15413;DHT22;7805;49.554;7.632;2023-08-30T04:08:52;14.80;99.90
15413;DHT22;7805;49.554;7.632;2023-08-30T04:11:17;14.60;99.90
15413;DHT22;7805;49.554;7.632;2023-08-30T04:13:43;14.80;99.90
15413;DHT22;7805;49.554;7.632;2023-08-30T04:16:08;14.70;99.90
15413;DHT22;7805;49.554;7.632;2023-08-30T04:18:34;14.50;99.90
15413;DHT22;7805;49.554;7.632;2023-08-30T04:21:00;14.40;99.90
15413;DHT22;7805;49.554;7.632;2023-08-30T04:23:28;14.30;99.90
15413;DHT22;7805;49.554;7.632;2023-08-30T04:25:53;14.20;99.90
15413;DHT22;7805;49.554;7.632;2023-08-30T04:28:19;14.30;99.90
15413;DHT22;7805;49.554;7.632;2023-08-30T04:30:45;14.20;99.90
15413;DHT22;7805;49.554;7.632;2023-08-30T04:33:10;14.30;99.90
15413;DHT22;7805;49.554;7.632;2023-08-30T04:35:36;14.30;99.90
15413;DHT22;7805;49.554;7.632;2023-08-30T04:38:02;14.40;99.90
15413;DHT22;7805;49.554;7.632;2023-08-30T04:40:28;14.40;99.90
15413;DHT22;7805;49.554;7.632;2023-08-30T04:42:56;14.50;99.90
15413;DHT22;7805;49.554;7.632;2023-08-30T04:45:22;14.30;99.90
15413;DHT22;7805;49.554;7.632;2023-08-30T04:47:47;14.20;99.90
15413;DHT22;7805;49.554;7.632;2023-08-30T04:50:13;14.20;99.90
15413;DHT22;7805;49.554;7.632;2023-08-30T04:52:39;14.30;99.90
15413;DHT22;7805;49.554;7.632;2023-08-30T04:55:05;14.40;99.90
15413;DHT22;7805;49.554;7.632;2023-08-30T04:57:30;14.40;99.90
15413;DHT22;7805;49.554;7.632;2023-08-30T04:59:57;14.80;99.90
15413;DHT22;7805;49.554;7.632;2023-08-30T05:02:23;14.50;99.90
15413;DHT22;7805;49.554;7.632;2023-08-30T05:04:48;14.60;99.90
15413;DHT22;7805;49.554;7.632;2023-08-30T05:07:14;14.60;99.90
15413;DHT22;7805;49.554;7.632;2023-08-30T05:09:39;14.70;99.90
15413;DHT22;7805;49.554;7.632;2023-08-30T05:12:06;14.70;99.90
15413;DHT22;7805;49.554;7.632;2023-08-30T05:14:32;14.70;99.90
15413;DHT22;7805;49.554;7.632;2023-08-30T05:16:58;14.70;99.90
15413;DHT22;7805;49.554;7.632;2023-08-30T05:19:23;14.70;99.90
15413;DHT22;7805;49.554;7.632;2023-08-30T05:21:49;14.70;99.90
15413;DHT22;7805;49.554;7.632;2023-08-30T05:24:20;14.70;99.90
15413;DHT22;7805;49.554;7.632;2023-08-30T05:26:46;14.90;99.90
15413;DHT22;7805;49.554;7.632;2023-08-30T05:29:13;14.90;99.90
15413;DHT22;7805;49.554;7.632;2023-08-30T05:31:39;15.00;99.90
15413;DHT22;7805;49.554;7.632;2023-08-30T05:34:04;15.10;99.90
15413;DHT22;7805;49.554;7.632;2023-08-30T05:36:30;15.10;99.90
15413;DHT22;7805;49.554;7.632;2023-08-30T05:38:56;15.10;99.90
15413;DHT22;7805;49.554;7.632;2023-08-30T05:41:21;15.20;99.90
15413;DHT22;7805;49.554;7.632;2023-08-30T05:43:47;15.30;99.90
15413;DHT22;7805;49.554;7.632;2023-08-30T05:46:12;15.30;99.90
15413;DHT22;7805;49.554;7.632;2023-08-30T05:48:40;15.30;99.90
15413;DHT22;7805;49.554;7.632;2023-08-30T05:51:05;15.30;99.90
15413;DHT22;7805;49.554;7.632;2023-08-30T05:53:31;15.30;99.90
15413;DHT22;7805;49.554;7.632;2023-08-30T05:55:57;15.40;99.90
15413;DHT22;7805;49.554;7.632;2023-08-30T05:58:22;15.40;99.90
15413;DHT22;7805;49.554;7.632;2023-08-30T06:00:48;15.40;99.90
15413;DHT22;7805;49.554;7.632;2023-08-30T06:03:13;15.50;99.90
15413;DHT22;7805;49.554;7.632;2023-08-30T06:05:39;15.50;99.90
15413;DHT22;7805;49.554;7.632;2023-08-30T06:08:05;15.60;99.90
15413;DHT22;7805;49.554;7.632;2023-08-30T06:10:30;15.60;99.90
15413;DHT22;7805;49.554;7.632;2023-08-30T06:12:56;15.50;99.90
15413;DHT22;7805;49.554;7.632;2023-08-30T06:15:21;15.50;99.90
15413;DHT22;7805;49.554;7.632;2023-08-30T06:17:47;15.60;99.90
15413;DHT22;7805;49.554;7.632;2023-08-30T06:20:15;15.60;99.90
15413;DHT22;7805;49.554;7.632;2023-08-30T06:22:40;15.60;99.90
15413;DHT22;7805;49.554;7.632;2023-08-30T06:25:08;15.60;99.90
15413;DHT22;7805;49.554;7.632;2023-08-30T06:27:36;15.70;99.90
15413;DHT22;7805;49.554;7.632;2023-08-30T06:30:01;15.60;99.90
15413;DHT22;7805;49.554;7.632;2023-08-30T06:32:28;15.60;99.90
15413;DHT22;7805;49.554;7.632;2023-08-30T06:34:54;15.50;99.90
15413;DHT22;7805;49.554;7.632;2023-08-30T06:37:20;15.40;99.90
15413;DHT22;7805;49.554;7.632;2023-08-30T06:39:45;15.60;99.90
15413;DHT22;7805;49.554;7.632;2023-08-30T06:42:11;15.50;99.90
15413;DHT22;7805;49.554;7.632;2023-08-30T06:44:36;15.60;99.90
15413;DHT22;7805;49.554;7.632;2023-08-30T06:47:02;15.70;99.90
15413;DHT22;7805;49.554;7.632;2023-08-30T06:49:28;15.80;99.90
15413;DHT22;7805;49.554;7.632;2023-08-30T06:51:54;15.90;99.90
15413;DHT22;7805;49.554;7.632;2023-08-30T06:54:19;16.00;99.90
15413;DHT22;7805;49.554;7.632;2023-08-30T06:56:58;16.10;99.90
15413;DHT22;7805;49.554;7.632;2023-08-30T06:59:25;15.00;99.90
15413;DHT22;7805;49.554;7.632;2023-08-30T07:01:50;16.20;99.90
15413;DHT22;7805;49.554;7.632;2023-08-30T07:04:16;16.30;99.90
15413;DHT22;7805;49.554;7.632;2023-08-30T07:06:41;16.40;99.90
15413;DHT22;7805;49.554;7.632;2023-08-30T07:09:07;16.50;99.90
15413;DHT22;7805;49.554;7.632;2023-08-30T07:11:34;16.60;99.90
15413;DHT22;7805;49.554;7.632;2023-08-30T07:14:00;16.50;99.90
15413;DHT22;7805;49.554;7.632;2023-08-30T07:16:25;16.40;99.90
15413;DHT22;7805;49.554;7.632;2023-08-30T07:18:51;16.30;99.90
15413;DHT22;7805;49.554;7.632;2023-08-30T07:21:16;16.20;99.90
15413;DHT22;7805;49.554;7.632;2023-08-30T07:23:43;16.20;99.90
15413;DHT22;7805;49.554;7.632;2023-08-30T07:26:09;16.30;99.90
15413;DHT22;7805;49.554;7.632;2023-08-30T07:28:35;16.30;99.90
15413;DHT22;7805;49.554;7.632;2023-08-30T07:31:04;16.20;99.90
15413;DHT22;7805;49.554;7.632;2023-08-30T07:33:30;16.30;99.90
15413;DHT22;7805;49.554;7.632;2023-08-30T07:35:55;16.40;99.90
15413;DHT22;7805;49.554;7.632;2023-08-30T07:38:21;16.40;99.90
15413;DHT22;7805;49.554;7.632;2023-08-30T07:40:46;16.60;99.90
15413;DHT22;7805;49.554;7.632;2023-08-30T07:43:12;16.50;99.90
15413;DHT22;7805;49.554;7.632;2023-08-30T07:45:37;16.60;99.90
15413;DHT22;7805;49.554;7.632;2023-08-30T07:48:03;16.60;99.90
15413;DHT22;7805;49.554;7.632;2023-08-30T07:50:29;16.60;99.90
15413;DHT22;7805;49.554;7.632;2023-08-30T07:52:54;16.60;99.90
15413;DHT22;7805;49.554;7.632;2023-08-30T07:55:20;16.70;99.90
15413;DHT22;7805;49.554;7.632;2023-08-30T07:57:45;16.80;99.90
15413;DHT22;7805;49.554;7.632;2023-08-30T08:00:12;16.90;99.90
15413;DHT22;7805;49.554;7.632;2023-08-30T08:02:37;17.10;99.90
15413;DHT22;7805;49.554;7.632;2023-08-30T08:05:03;17.10;99.90
15413;DHT22;7805;49.554;7.632;2023-08-30T08:07:29;17.00;99.90
15413;DHT22;7805;49.554;7.632;2023-08-30T08:09:54;16.90;99.90
15413;DHT22;7805;49.554;7.632;2023-08-30T08:12:20;17.20;99.90
15413;DHT22;7805;49.554;7.632;2023-08-30T08:14:46;17.00;99.90
15413;DHT22;7805;49.554;7.632;2023-08-30T08:17:12;17.10;99.90
15413;DHT22;7805;49.554;7.632;2023-08-30T08:19:37;17.20;99.90
15413;DHT22;7805;49.554;7.632;2023-08-30T08:22:05;17.20;99.90
15413;DHT22;7805;49.554;7.632;2023-08-30T08:24:31;17.20;99.90
15413;DHT22;7805;49.554;7.632;2023-08-30T08:26:56;17.30;99.90
15413;DHT22;7805;49.554;7.632;2023-08-30T08:29:22;17.30;99.90
15413;DHT22;7805;49.554;7.632;2023-08-30T08:31:48;17.40;99.90
15413;DHT22;7805;49.554;7.632;2023-08-30T08:34:14;17.40;99.90
15413;DHT22;7805;49.554;7.632;2023-08-30T08:36:41;17.50;99.90
15413;DHT22;7805;49.554;7.632;2023-08-30T08:39:07;17.50;99.90
15413;DHT22;7805;49.554;7.632;2023-08-30T08:41:43;17.60;99.90
15413;DHT22;7805;49.554;7.632;2023-08-30T08:44:12;17.60;99.90
15413;DHT22;7805;49.554;7.632;2023-08-30T08:46:39;17.60;99.90
15413;DHT22;7805;49.554;7.632;2023-08-30T08:49:09;17.80;99.90
15413;DHT22;7805;49.554;7.632;2023-08-30T08:51:36;17.90;99.90
15413;DHT22;7805;49.554;7.632;2023-08-30T08:54:04;18.10;99.90
15413;DHT22;7805;49.554;7.632;2023-08-30T08:56:31;18.10;99.90
15413;DHT22;7805;49.554;7.632;2023-08-30T08:58:57;18.00;99.90
15413;DHT22;7805;49.554;7.632;2023-08-30T09:01:24;18.00;99.90
15413;DHT22;7805;49.554;7.632;2023-08-30T09:03:50;18.10;99.90
15413;DHT22;7805;49.554;7.632;2023-08-30T09:06:16;18.10;99.90
15413;DHT22;7805;49.554;7.632;2023-08-30T09:08:42;18.60;99.90
15413;DHT22;7805;49.554;7.632;2023-08-30T09:11:08;19.00;99.90
15413;DHT22;7805;49.554;7.632;2023-08-30T09:13:33;19.40;99.90
15413;DHT22;7805;49.554;7.632;2023-08-30T09:15:59;19.90;99.90
15413;DHT22;7805;49.554;7.632;2023-08-30T09:18:25;19.90;99.90
15413;DHT22;7805;49.554;7.632;2023-08-30T09:21:08;20.10;99.90
15413;DHT22;7805;49.554;7.632;2023-08-30T09:23:34;20.50;99.90
15413;DHT22;7805;49.554;7.632;2023-08-30T09:26:00;20.80;99.90
15413;DHT22;7805;49.554;7.632;2023-08-30T09:28:26;21.10;99.90
15413;DHT22;7805;49.554;7.632;2023-08-30T09:30:52;21.20;99.90
15413;DHT22;7805;49.554;7.632;2023-08-30T09:33:30;21.40;99.90
15413;DHT22;7805;49.554;7.632;2023-08-30T09:35:57;21.50;99.90
15413;DHT22;7805;49.554;7.632;2023-08-30T09:38:23;21.60;99.90
15413;DHT22;7805;49.554;7.632;2023-08-30T09:40:50;21.70;99.90
15413;DHT22;7805;49.554;7.632;2023-08-30T09:43:19;21.60;99.90
15413;DHT22;7805;49.554;7.632;2023-08-30T09:45:47;21.70;99.90
15413;DHT22;7805;49.554;7.632;2023-08-30T09:48:13;21.80;99.90
15413;DHT22;7805;49.554;7.632;2023-08-30T09:50:42;22.00;99.90
15413;DHT22;7805;49.554;7.632;2023-08-30T09:53:11;22.50;99.90
15413;DHT22;7805;49.554;7.632;2023-08-30T09:55:38;22.70;99.90
15413;DHT22;7805;49.554;7.632;2023-08-30T09:58:05;22.40;99.90
15413;DHT22;7805;49.554;7.632;2023-08-30T10:00:32;22.30;99.90
15413;DHT22;7805;49.554;7.632;2023-08-30T10:02:59;22.20;99.90
15413;DHT22;7805;49.554;7.632;2023-08-30T10:05:26;22.20;99.90
15413;DHT22;7805;49.554;7.632;2023-08-30T10:07:53;22.30;99.90
15413;DHT22;7805;49.554;7.632;2023-08-30T10:10:19;22.60;99.90
15413;DHT22;7805;49.554;7.632;2023-08-30T10:12:46;22.90;99.90
15413;DHT22;7805;49.554;7.632;2023-08-30T10:15:12;23.10;99.90
15413;DHT22;7805;49.554;7.632;2023-08-30T10:17:38;23.10;99.90
15413;DHT22;7805;49.554;7.632;2023-08-30T10:20:07;23.10;99.90
15413;DHT22;7805;49.554;7.632;2023-08-30T10:22:35;23.30;99.90
15413;DHT22;7805;49.554;7.632;2023-08-30T10:25:04;23.40;99.70
15413;DHT22;7805;49.554;7.632;2023-08-30T10:27:35;23.40;99.60
15413;DHT22;7805;49.554;7.632;2023-08-30T10:30:02;23.60;99.30
15413;DHT22;7805;49.554;7.632;2023-08-30T10:32:29;23.80;99.30
15413;DHT22;7805;49.554;7.632;2023-08-30T10:35:01;23.90;98.30
15413;DHT22;7805;49.554;7.632;2023-08-30T10:37:29;23.80;98.10
15413;DHT22;7805;49.554;7.632;2023-08-30T10:40:00;24.00;98.00
15413;DHT22;7805;49.554;7.632;2023-08-30T10:42:28;24.00;97.50
15413;DHT22;7805;49.554;7.632;2023-08-30T10:45:04;24.30;98.00
15413;DHT22;7805;49.554;7.632;2023-08-30T10:47:39;24.40;97.00
15413;DHT22;7805;49.554;7.632;2023-08-30T10:50:12;24.60;96.80
15413;DHT22;7805;49.554;7.632;2023-08-30T10:52:38;24.70;96.70
15413;DHT22;7805;49.554;7.632;2023-08-30T10:55:14;24.60;96.00
15413;DHT22;7805;49.554;7.632;2023-08-30T10:57:44;24.40;95.50
15413;DHT22;7805;49.554;7.632;2023-08-30T11:00:23;24.00;94.90
15413;DHT22;7805;49.554;7.632;2023-08-30T11:02:50;23.50;95.20
15413;DHT22;7805;49.554;7.632;2023-08-30T11:05:18;23.30;96.10
15413;DHT22;7805;49.554;7.632;2023-08-30T11:07:44;23.60;95.70
15413;DHT22;7805;49.554;7.632;2023-08-30T11:10:12;23.40;95.00
15413;DHT22;7805;49.554;7.632;2023-08-30T11:12:42;23.60;94.60
15413;DHT22;7805;49.554;7.632;2023-08-30T11:15:10;24.00;94.50
15413;DHT22;7805;49.554;7.632;2023-08-30T11:17:35;24.10;94.40
15413;DHT22;7805;49.554;7.632;2023-08-30T11:20:15;24.40;94.70
15413;DHT22;7805;49.554;7.632;2023-08-30T11:22:48;24.60;93.60
15413;DHT22;7805;49.554;7.632;2023-08-30T11:25:15;24.80;93.00
15413;DHT22;7805;49.554;7.632;2023-08-30T11:27:42;25.00;93.70
15413;DHT22;7805;49.554;7.632;2023-08-30T11:30:09;25.20;91.60
15413;DHT22;7805;49.554;7.632;2023-08-30T11:32:36;25.10;91.40
15413;DHT22;7805;49.554;7.632;2023-08-30T11:35:02;25.20;91.50
15413;DHT22;7805;49.554;7.632;2023-08-30T11:37:28;24.50;91.10
15413;DHT22;7805;49.554;7.632;2023-08-30T11:39:57;24.40;92.50
15413;DHT22;7805;49.554;7.632;2023-08-30T11:42:24;24.40;91.40
15413;DHT22;7805;49.554;7.632;2023-08-30T11:44:50;24.30;91.30
15413;DHT22;7805;49.554;7.632;2023-08-30T11:47:24;24.60;92.20
15413;DHT22;7805;49.554;7.632;2023-08-30T11:49:54;24.90;91.00
15413;DHT22;7805;49.554;7.632;2023-08-30T11:52:21;24.70;88.70
15413;DHT22;7805;49.554;7.632;2023-08-30T11:54:48;24.20;89.70
15413;DHT22;7805;49.554;7.632;2023-08-30T11:57:14;23.90;90.90
15413;DHT22;7805;49.554;7.632;2023-08-30T11:59:40;23.80;91.30
15413;DHT22;7805;49.554;7.632;2023-08-30T12:02:07;23.70;91.90
15413;DHT22;7805;49.554;7.632;2023-08-30T12:04:39;23.70;92.30
15413;DHT22;7805;49.554;7.632;2023-08-30T12:07:05;23.50;92.90
15413;DHT22;7805;49.554;7.632;2023-08-30T12:09:31;23.60;92.80
15413;DHT22;7805;49.554;7.632;2023-08-30T12:12:10;23.70;93.30
15413;DHT22;7805;49.554;7.632;2023-08-30T12:14:36;23.90;92.90
15413;DHT22;7805;49.554;7.632;2023-08-30T12:17:02;24.70;93.30
15413;DHT22;7805;49.554;7.632;2023-08-30T12:19:28;25.10;91.80
15413;DHT22;7805;49.554;7.632;2023-08-30T12:21:54;25.30;91.20
15413;DHT22;7805;49.554;7.632;2023-08-30T12:24:20;25.60;90.50
15413;DHT22;7805;49.554;7.632;2023-08-30T12:26:45;25.40;90.00
15413;DHT22;7805;49.554;7.632;2023-08-30T12:29:11;25.30;90.30
15413;DHT22;7805;49.554;7.632;2023-08-30T12:31:36;24.80;90.00
15413;DHT22;7805;49.554;7.632;2023-08-30T12:34:03;24.60;90.80
15413;DHT22;7805;49.554;7.632;2023-08-30T12:36:29;24.40;91.00
15413;DHT22;7805;49.554;7.632;2023-08-30T12:38:54;24.30;91.70
15413;DHT22;7805;49.554;7.632;2023-08-30T12:41:20;24.10;91.80
15413;DHT22;7805;49.554;7.632;2023-08-30T12:43:48;24.10;92.10
15413;DHT22;7805;49.554;7.632;2023-08-30T12:46:14;24.20;92.40
15413;DHT22;7805;49.554;7.632;2023-08-30T12:48:39;24.30;92.30
15413;DHT22;7805;49.554;7.632;2023-08-30T12:51:06;24.40;92.00
15413;DHT22;7805;49.554;7.632;2023-08-30T12:53:32;24.30;91.70
15413;DHT22;7805;49.554;7.632;2023-08-30T12:55:57;24.10;92.10
15413;DHT22;7805;49.554;7.632;2023-08-30T12:58:23;24.10;92.50
15413;DHT22;7805;49.554;7.632;2023-08-30T13:00:49;24.10;92.20
15413;DHT22;7805;49.554;7.632;2023-08-30T13:03:15;24.10;92.10
15413;DHT22;7805;49.554;7.632;2023-08-30T13:05:41;24.00;92.10
15413;DHT22;7805;49.554;7.632;2023-08-30T13:08:06;23.70;91.00
15413;DHT22;7805;49.554;7.632;2023-08-30T13:10:32;23.70;91.70
15413;DHT22;7805;49.554;7.632;2023-08-30T13:12:58;23.70;91.20
15413;DHT22;7805;49.554;7.632;2023-08-30T13:15:24;24.00;91.40
15413;DHT22;7805;49.554;7.632;2023-08-30T13:17:49;24.40;91.20
15413;DHT22;7805;49.554;7.632;2023-08-30T13:20:15;24.60;90.30
15413;DHT22;7805;49.554;7.632;2023-08-30T13:22:41;24.80;89.20
15413;DHT22;7805;49.554;7.632;2023-08-30T13:25:07;25.10;88.50
15413;DHT22;7805;49.554;7.632;2023-08-30T13:27:33;25.30;86.40
15413;DHT22;7805;49.554;7.632;2023-08-30T13:29:58;25.60;85.00
15413;DHT22;7805;49.554;7.632;2023-08-30T13:32:24;25.80;82.40
15413;DHT22;7805;49.554;7.632;2023-08-30T13:34:50;25.60;77.30
15413;DHT22;7805;49.554;7.632;2023-08-30T13:37:16;25.60;78.50
15413;DHT22;7805;49.554;7.632;2023-08-30T13:39:42;25.80;76.70
15413;DHT22;7805;49.554;7.632;2023-08-30T13:42:08;26.00;76.90
15413;DHT22;7805;49.554;7.632;2023-08-30T13:44:33;26.30;77.00
15413;DHT22;7805;49.554;7.632;2023-08-30T13:47:05;26.40;74.90
15413;DHT22;7805;49.554;7.632;2023-08-30T13:49:31;26.50;74.50
15413;DHT22;7805;49.554;7.632;2023-08-30T13:51:57;26.60;75.10
15413;DHT22;7805;49.554;7.632;2023-08-30T13:54:23;26.70;73.50
15413;DHT22;7805;49.554;7.632;2023-08-30T13:56:49;26.80;74.20
15413;DHT22;7805;49.554;7.632;2023-08-30T13:59:15;27.10;74.10
15413;DHT22;7805;49.554;7.632;2023-08-30T14:01:41;28.90;72.90
15413;DHT22;7805;49.554;7.632;2023-08-30T14:04:07;26.50;71.20
15413;DHT22;7805;49.554;7.632;2023-08-30T14:06:33;26.50;72.20
15413;DHT22;7805;49.554;7.632;2023-08-30T14:08:59;25.80;73.00
15413;DHT22;7805;49.554;7.632;2023-08-30T14:11:24;25.60;74.70
15413;DHT22;7805;49.554;7.632;2023-08-30T14:13:50;25.40;75.90
15413;DHT22;7805;49.554;7.632;2023-08-30T14:16:15;25.20;76.50
15413;DHT22;7805;49.554;7.632;2023-08-30T14:18:42;25.10;77.50
15413;DHT22;7805;49.554;7.632;2023-08-30T14:21:08;24.80;78.80
15413;DHT22;7805;49.554;7.632;2023-08-30T14:23:34;24.50;80.00
15413;DHT22;7805;49.554;7.632;2023-08-30T14:26:05;24.20;81.00
15413;DHT22;7805;49.554;7.632;2023-08-30T14:28:38;23.90;81.70
15413;DHT22;7805;49.554;7.632;2023-08-30T14:31:06;23.70;83.90
15413;DHT22;7805;49.554;7.632;2023-08-30T14:33:31;23.70;84.60
15413;DHT22;7805;49.554;7.632;2023-08-30T14:35:57;23.70;85.60
15413;DHT22;7805;49.554;7.632;2023-08-30T14:38:23;23.50;86.10
15413;DHT22;7805;49.554;7.632;2023-08-30T14:40:56;23.20;88.20
15413;DHT22;7805;49.554;7.632;2023-08-30T14:43:22;23.10;89.40
15413;DHT22;7805;49.554;7.632;2023-08-30T14:45:47;23.10;90.30
15413;DHT22;7805;49.554;7.632;2023-08-30T14:48:13;22.90;90.50
15413;DHT22;7805;49.554;7.632;2023-08-30T14:50:38;22.90;91.00
15413;DHT22;7805;49.554;7.632;2023-08-30T14:53:04;22.90;91.40
15413;DHT22;7805;49.554;7.632;2023-08-30T14:55:31;23.20;91.60
15413;DHT22;7805;49.554;7.632;2023-08-30T14:57:56;23.30;91.40
15413;DHT22;7805;49.554;7.632;2023-08-30T15:00:23;23.40;91.50
15413;DHT22;7805;49.554;7.632;2023-08-30T15:02:49;23.40;91.30
15413;DHT22;7805;49.554;7.632;2023-08-30T15:05:15;23.50;91.40
15413;DHT22;7805;49.554;7.632;2023-08-30T15:07:40;23.40;91.60
15413;DHT22;7805;49.554;7.632;2023-08-30T15:10:06;23.20;92.10
15413;DHT22;7805;49.554;7.632;2023-08-30T15:12:32;23.00;92.00
15413;DHT22;7805;49.554;7.632;2023-08-30T15:14:57;22.70;92.80
15413;DHT22;7805;49.554;7.632;2023-08-30T15:17:23;22.60;93.20
15413;DHT22;7805;49.554;7.632;2023-08-30T15:19:49;22.60;93.70
15413;DHT22;7805;49.554;7.632;2023-08-30T15:22:14;22.50;94.00
15413;DHT22;7805;49.554;7.632;2023-08-30T15:24:40;22.40;94.30
15413;DHT22;7805;49.554;7.632;2023-08-30T15:27:05;22.50;94.90
15413;DHT22;7805;49.554;7.632;2023-08-30T15:29:31;22.50;95.10
15413;DHT22;7805;49.554;7.632;2023-08-30T15:31:56;22.60;95.20
15413;DHT22;7805;49.554;7.632;2023-08-30T15:34:22;22.40;95.60
15413;DHT22;7805;49.554;7.632;2023-08-30T15:36:47;22.30;96.20
15413;DHT22;7805;49.554;7.632;2023-08-30T15:39:14;22.30;96.50
15413;DHT22;7805;49.554;7.632;2023-08-30T15:41:42;22.20;96.90
15413;DHT22;7805;49.554;7.632;2023-08-30T15:44:08;22.10;97.30
15413;DHT22;7805;49.554;7.632;2023-08-30T15:46:33;21.90;97.80